Centennial, WY

10:03 PM MST on February 26, 2017 (GMT -0700)
West of Centennial WY | | Change Station
Active Advisory: Winter Weather Advisory

Elev 8274 ft 41.30 °N, 106.15 °W | Updated 7 seconds ago

Clear
Clear
15.1 °F
Feels Like 15 °F
N
1.8
Wind Variable Wind from WSW
Gusts 2.5 mph

Today
High -- | Low -- °F
--% Chance of Precip.
Yesterday
High -- | Low -- °F
Precip. -- in
Pressure 29.81 in
Visibility 10.0 miles
Clouds Clear
Windchill 15 °F
Dew Point -11 °F
Humidity 30%
Rainfall 0.79 in
Snow Depth Not available.
6:43 AM 5:52 PM
New Moon, 0% visible
METAR KLAR 270453Z AUTO 19010G15KT 10SM CLR M07/M17 A2969 RMK AO2 SLP094 T10671172
Pressure 29.81 in
Visibility 10.0 miles
Clouds Clear
Windchill 15 °F
Dew Point -11 °F
Humidity 30%
Rainfall 0.79 in
Snow Depth Not available.
6:43 AM 5:52 PM
New Moon, 0% visible
METAR KLAR 270453Z AUTO 19010G15KT 10SM CLR M07/M17 A2969 RMK AO2 SLP094 T10671172

Get Your Daily Forecast Email!

Thanks for signing up!

Be on the lookout for a verification email in your inbox.

You'll start receiving the daily forecast at 8 AM.

×

10-Day Weather Forecast

Almanac

Astronomy

Feb. 26, 2017 Rise Set
Actual Time
Civil Twilight
Nautical Twilight
Astronomical Twilight
Moon
Length of Visible Light
Length of Day
Tomorrow will be .
, % of the Moon is Illuminated

Today's Extremes

State Highs State Lows

Community

WunderPhotos

Upload Photos

1,962,540 photos uploaded!

WunderBlog® & News

Nearby

Air Quality

  Air Quality AQ Index Pollutant
Not available.

Snow Depth

Station Depth Elevation

Earthquake Activity

City Distance Mag. Time & Date
Minimum magnitude displayed is 2.5.

Coastal Water Temperatures

Place Temperature

Stations

Nearby Weather Stations

Station Location Temp. Windchill Dew Point Humidity Wind Precip. Elev Updated Type
                   

Watches & Warnings

Winter Weather Advisory
Issued: 2:05 PM MST Feb. 26, 2017 – National Weather Service

... Winter Weather Advisory remains in effect from 2 PM Monday to
5 am MST Tuesday...

* timing... snow is expected to begin falling shortly after noon
time Monday with moderate snow expected to fall towards
sunset, lasting through Tuesday morning.

* Total snow accumulations... 7 to 10 inches.

* Winds/visibility... west to southwest winds of 25 to 30 mph
sustained with gusts to 35 mph could reduced visibilities to
under a half mile at times.

* Impacts... mainly to travel and outdoor activities. Roads that
are open will likely become snow covered and or impassable.
Those with recreation interests will likely see significantly
reduced visibilities leading to disorientation.

Precautionary/preparedness actions...

A Winter Weather Advisory for snow and blowing snow means that
snow and strong winds will create restricted visibilities and
drifting snow along area roadways. Use caution when traveling...
especially in open areas.